createdAt,value
2023-03-30T00:01:43.732Z,100639.27
2023-03-30T00:04:13.473Z,100642.56
2023-03-30T00:06:42.641Z,100645.18
2023-03-30T00:09:10.916Z,100641.40
2023-03-30T00:11:43.596Z,100640.86
2023-03-30T00:14:12.591Z,100637.51
2023-03-30T00:16:41.438Z,100636.73
2023-03-30T00:19:09.652Z,100636.27
2023-03-30T00:21:38.243Z,100636.95
2023-03-30T00:24:07.331Z,100635.08
2023-03-30T00:26:36.897Z,100636.98
2023-03-30T00:29:06.454Z,100630.70
2023-03-30T00:31:34.991Z,100632.69
2023-03-30T00:34:03.203Z,100633.34
2023-03-30T00:36:37.214Z,100634.52
2023-03-30T00:39:07.105Z,100638.42
2023-03-30T00:41:36.074Z,100636.88
2023-03-30T00:44:07.578Z,100635.98
2023-03-30T00:46:36.616Z,100637.52
2023-03-30T00:49:09.352Z,100639.54
2023-03-30T00:51:42.946Z,100640.34
2023-03-30T00:54:14.619Z,100641.47
2023-03-30T00:56:43.379Z,100646.40
2023-03-30T00:59:12.081Z,100647.64
2023-03-30T01:01:43.551Z,100653.64
2023-03-30T01:04:14.341Z,100652.51
2023-03-30T01:06:46.157Z,100652.53
2023-03-30T01:09:15.644Z,100655.83
2023-03-30T01:11:44.938Z,100657.33
2023-03-30T01:14:13.926Z,100658.43
2023-03-30T01:17:14.200Z,100661.30
2023-03-30T01:20:12.237Z,100665.08
2023-03-30T01:22:52.902Z,100666.23
2023-03-30T01:25:30.090Z,100669.35
2023-03-30T01:28:18.876Z,100670.43
2023-03-30T01:31:14.924Z,100670.92
2023-03-30T01:34:01.579Z,100676.19
2023-03-30T01:36:42.653Z,100679.13
2023-03-30T01:39:13.492Z,100685.04
2023-03-30T01:42:05.937Z,100686.20
2023-03-30T01:45:01.549Z,100689.40
2023-03-30T01:47:40.156Z,100692.44
2023-03-30T01:50:13.351Z,100693.04
2023-03-30T01:52:53.930Z,100687.61
2023-03-30T01:55:44.937Z,100686.84
2023-03-30T01:58:18.237Z,100687.75
2023-03-30T02:00:50.524Z,100693.54
2023-03-30T02:03:22.808Z,100697.13
2023-03-30T02:05:52.429Z,100698.86
2023-03-30T02:08:25.130Z,100706.91
2023-03-30T02:10:53.643Z,100708.88
2023-03-30T02:13:22.899Z,100713.08
2023-03-30T02:16:04.646Z,100716.80
2023-03-30T02:18:34.048Z,100711.23
2023-03-30T02:21:02.798Z,100716.86
2023-03-30T02:23:35.918Z,100721.45
2023-03-30T02:26:04.943Z,100721.58
2023-03-30T02:28:35.349Z,100721.73
2023-03-30T02:31:04.532Z,100721.98
2023-03-30T02:33:49.050Z,100722.44
2023-03-30T02:36:37.701Z,100718.71
2023-03-30T02:39:18.690Z,100722.15
2023-03-30T02:42:13.290Z,100725.75
2023-03-30T02:45:00.457Z,100730.91
2023-03-30T02:47:34.464Z,100731.21
2023-03-30T02:50:14.634Z,100733.83
2023-03-30T02:53:00.186Z,100735.84
2023-03-30T02:55:38.521Z,100742.13
2023-03-30T02:58:32.631Z,100745.66
2023-03-30T03:01:18.297Z,100747.96
2023-03-30T03:04:13.250Z,100747.31
2023-03-30T03:06:53.230Z,100751.77
2023-03-30T03:09:21.907Z,100761.50
2023-03-30T03:11:50.186Z,100759.87
2023-03-30T03:14:18.871Z,100762.76
2023-03-30T03:16:48.018Z,100762.73
2023-03-30T03:19:16.996Z,100765.77
2023-03-30T03:21:47.904Z,100766.24
2023-03-30T03:24:18.018Z,100767.27
2023-03-30T03:27:04.429Z,100766.38
2023-03-30T03:29:38.024Z,100768.91
2023-03-30T03:32:08.221Z,100775.20
2023-03-30T03:34:45.029Z,100776.64
2023-03-30T03:37:14.837Z,100779.13
2023-03-30T03:39:49.564Z,100775.79
2023-03-30T03:42:18.043Z,100773.24
2023-03-30T03:44:52.579Z,100772.39
2023-03-30T03:47:23.290Z,100774.20
2023-03-30T03:49:51.790Z,100773.37
2023-03-30T03:52:20.470Z,100770.55
2023-03-30T03:54:48.950Z,100774.67
2023-03-30T03:57:26.232Z,100776.06
2023-03-30T03:59:57.182Z,100779.52
2023-03-30T04:02:26.944Z,100783.98
2023-03-30T04:04:56.035Z,100785.73
2023-03-30T04:07:25.670Z,100781.83
2023-03-30T04:09:54.075Z,100777.43
2023-03-30T04:12:54.612Z,100778.38
2023-03-30T04:15:49.621Z,100781.61
2023-03-30T04:18:33.704Z,100785.16
2023-03-30T04:21:21.802Z,100792.09
2023-03-30T04:24:04.832Z,100791.95
2023-03-30T04:26:52.237Z,100791.97
2023-03-30T04:29:40.901Z,100793.16
2023-03-30T04:32:21.336Z,100798.12
2023-03-30T04:34:56.706Z,100799.45
2023-03-30T04:37:30.609Z,100799.39
2023-03-30T04:40:16.480Z,100802.72
2023-03-30T04:43:14.282Z,100806.92
2023-03-30T04:45:56.351Z,100808.37
2023-03-30T04:48:44.639Z,100803.27
2023-03-30T04:51:18.738Z,100805.45
2023-03-30T04:54:07.084Z,100806.91
2023-03-30T04:56:55.758Z,100807.91
2023-03-30T04:59:43.487Z,100807.02
2023-03-30T05:02:38.571Z,100805.14
2023-03-30T05:05:30.936Z,100804.23
2023-03-30T05:08:25.856Z,100804.91
2023-03-30T05:11:17.046Z,100802.59
2023-03-30T05:13:54.756Z,100808.98
2023-03-30T05:16:43.200Z,100809.58
2023-03-30T05:19:26.395Z,100804.63
2023-03-30T05:22:12.607Z,100799.55
2023-03-30T05:24:46.926Z,100796.55
2023-03-30T05:27:33.838Z,100795.73
2023-03-30T05:30:28.438Z,100794.61
2023-03-30T05:33:16.063Z,100795.83
2023-03-30T05:36:05.064Z,100799.94
2023-03-30T05:38:56.444Z,100805.34
2023-03-30T05:41:43.560Z,100794.85
2023-03-30T05:44:29.048Z,100792.86
2023-03-30T05:47:22.314Z,100791.77
2023-03-30T05:50:13.847Z,100792.00
2023-03-30T05:52:53.375Z,100795.38
2023-03-30T05:55:48.162Z,100791.84
2023-03-30T05:58:46.543Z,100795.71
2023-03-30T06:01:27.418Z,100797.24
2023-03-30T06:03:57.295Z,100799.52
2023-03-30T06:06:25.407Z,100792.84
2023-03-30T06:08:56.093Z,100798.71
2023-03-30T06:11:26.377Z,100800.13
2023-03-30T06:14:17.638Z,100800.08
2023-03-30T06:16:53.572Z,100799.77
2023-03-30T06:19:22.014Z,100800.05
2023-03-30T06:21:50.767Z,100794.51
2023-03-30T06:24:38.124Z,100797.91
2023-03-30T06:27:06.197Z,100796.41
2023-03-30T06:29:35.003Z,100798.48
2023-03-30T06:32:04.213Z,100795.95
2023-03-30T06:34:53.465Z,100794.14
2023-03-30T06:37:22.442Z,100793.13
2023-03-30T06:39:51.029Z,100795.01
2023-03-30T06:42:19.728Z,100797.61
2023-03-30T06:45:09.629Z,100800.11
2023-03-30T06:47:39.650Z,100793.00
2023-03-30T06:50:08.929Z,100797.80
2023-03-30T06:52:58.085Z,100794.66
2023-03-30T06:55:28.310Z,100795.78
2023-03-30T06:58:01.193Z,100792.67
2023-03-30T07:00:30.006Z,100797.83
2023-03-30T07:03:19.105Z,100794.41
2023-03-30T07:06:26.059Z,100787.61
2023-03-30T07:08:54.513Z,100785.70
2023-03-30T07:11:27.304Z,100786.95
2023-03-30T07:13:58.661Z,100791.27
2023-03-30T07:16:27.446Z,100792.14
2023-03-30T07:18:58.020Z,100793.13
2023-03-30T07:21:27.473Z,100790.88
2023-03-30T07:23:56.986Z,100787.07
2023-03-30T07:26:34.229Z,100784.70
2023-03-30T07:29:09.296Z,100783.02
2023-03-30T07:31:39.243Z,100782.03
2023-03-30T07:34:12.196Z,100778.32
2023-03-30T07:36:45.907Z,100779.82
2023-03-30T07:39:17.041Z,100777.65
2023-03-30T07:41:46.450Z,100777.70
2023-03-30T07:44:15.240Z,100780.31
2023-03-30T07:46:44.873Z,100779.38
2023-03-30T07:49:17.939Z,100772.36
2023-03-30T07:51:46.309Z,100770.57
2023-03-30T07:54:27.300Z,100770.65
2023-03-30T07:57:35.037Z,100766.10
2023-03-30T08:00:06.467Z,100759.87
2023-03-30T08:02:42.049Z,100756.64
2023-03-30T08:05:15.887Z,100751.63
2023-03-30T08:07:57.141Z,100752.80
2023-03-30T08:10:30.064Z,100745.70
2023-03-30T08:12:59.708Z,100740.50
2023-03-30T08:15:30.126Z,100734.68
2023-03-30T08:19:35.586Z,100732.77
2023-03-30T08:22:03.761Z,100727.08
2023-03-30T08:24:32.519Z,100726.77
2023-03-30T08:27:01.939Z,100719.44
2023-03-30T08:29:31.899Z,100721.43
2023-03-30T08:32:00.212Z,100716.94
2023-03-30T08:34:29.368Z,100717.62
2023-03-30T08:36:58.324Z,100718.91
2023-03-30T08:39:30.318Z,100709.41
2023-03-30T08:42:32.679Z,100713.48
2023-03-30T08:45:05.648Z,100709.41
2023-03-30T08:47:39.742Z,100713.75
2023-03-30T08:50:09.709Z,100713.91
2023-03-30T08:52:38.654Z,100711.16
2023-03-30T08:55:24.543Z,100708.41
2023-03-30T08:58:03.786Z,100704.07
2023-03-30T09:00:40.766Z,100699.44
2023-03-30T09:03:28.391Z,100694.88
2023-03-30T09:06:00.882Z,100694.65
2023-03-30T09:08:32.215Z,100690.66
2023-03-30T09:11:01.978Z,100696.46
2023-03-30T09:13:35.482Z,100692.38
2023-03-30T09:16:09.538Z,100691.71
2023-03-30T09:18:38.428Z,100684.91
2023-03-30T09:21:09.677Z,100683.73
2023-03-30T09:23:38.116Z,100683.52
2023-03-30T09:26:34.695Z,100679.21
2023-03-30T09:29:15.191Z,100680.49
2023-03-30T09:31:52.198Z,100676.35
2023-03-30T09:34:27.691Z,100672.36
2023-03-30T09:37:09.276Z,100670.39
2023-03-30T09:39:38.882Z,100665.15
2023-03-30T09:42:22.941Z,100662.03
2023-03-30T09:44:52.860Z,100655.20
2023-03-30T09:47:25.258Z,100651.25
2023-03-30T09:50:00.685Z,100661.21
2023-03-30T09:52:37.370Z,100653.80
2023-03-30T09:55:35.209Z,100649.95
2023-03-30T09:58:18.729Z,100644.71
2023-03-30T10:00:48.330Z,100644.69
2023-03-30T10:03:21.319Z,100641.94
2023-03-30T10:06:09.590Z,100642.00
2023-03-30T10:08:55.522Z,100644.63
2023-03-30T10:11:53.894Z,100641.17
2023-03-30T10:14:29.517Z,100638.17
2023-03-30T10:16:59.283Z,100633.63
2023-03-30T10:19:29.671Z,100631.88
2023-03-30T10:21:59.317Z,100632.02
2023-03-30T10:24:33.353Z,100628.82
2023-03-30T10:27:13.253Z,100622.59
2023-03-30T10:29:50.451Z,100623.89
2023-03-30T10:32:24.024Z,100614.23
2023-03-30T10:34:56.519Z,100619.61
2023-03-30T10:37:29.773Z,100618.19
2023-03-30T10:39:58.571Z,100611.07
2023-03-30T10:42:27.072Z,100609.27
2023-03-30T10:44:56.558Z,100616.75
2023-03-30T10:47:40.187Z,100616.65
2023-03-30T10:50:36.030Z,100610.73
2023-03-30T10:53:38.401Z,100606.27
2023-03-30T10:56:20.305Z,100605.58
2023-03-30T10:59:11.720Z,100604.02
2023-03-30T11:01:53.490Z,100597.52
2023-03-30T11:04:47.271Z,100595.40
2023-03-30T11:07:23.745Z,100600.41
2023-03-30T11:09:55.192Z,100602.09
2023-03-30T11:12:23.602Z,100596.15
2023-03-30T11:15:22.792Z,100590.84
2023-03-30T11:18:15.015Z,100589.36
2023-03-30T11:20:57.222Z,100589.45
2023-03-30T11:23:50.587Z,100584.02
2023-03-30T11:26:47.721Z,100583.06
2023-03-30T11:29:31.489Z,100580.55
2023-03-30T11:32:37.660Z,100572.79
2023-03-30T11:35:26.290Z,100573.73
2023-03-30T11:38:09.721Z,100568.67
2023-03-30T11:40:42.718Z,100569.30
2023-03-30T11:43:12.673Z,100563.55
2023-03-30T11:46:04.471Z,100562.95
2023-03-30T11:48:33.043Z,100560.85
2023-03-30T11:51:14.212Z,100563.20
2023-03-30T11:53:52.114Z,100554.66
2023-03-30T11:56:47.018Z,100552.33
2023-03-30T11:59:30.867Z,100551.19
2023-03-30T12:02:04.016Z,100546.19
2023-03-30T12:05:11.550Z,100548.69
2023-03-30T12:07:52.595Z,100548.89
2023-03-30T12:10:28.793Z,100549.56
2023-03-30T12:12:57.172Z,100546.83
2023-03-30T12:15:40.502Z,100543.73
2023-03-30T12:18:20.863Z,100545.13
2023-03-30T12:21:08.285Z,100541.85
2023-03-30T12:23:37.894Z,100538.77
2023-03-30T12:26:29.211Z,100537.77
2023-03-30T12:29:40.490Z,100542.11
2023-03-30T12:31:47.929Z,100538.05
2023-03-30T12:34:16.670Z,100535.61
2023-03-30T12:36:49.499Z,100538.08
2023-03-30T12:40:00.194Z,100539.34
2023-03-30T12:42:34.876Z,100536.55
2023-03-30T12:45:15.654Z,100533.51
2023-03-30T12:48:26.542Z,100532.20
2023-03-30T12:51:22.913Z,100526.44
2023-03-30T12:54:01.941Z,100526.45
2023-03-30T12:56:39.309Z,100527.66
2023-03-30T12:59:22.683Z,100529.23
2023-03-30T13:02:07.262Z,100525.13
2023-03-30T13:04:38.811Z,100524.66
2023-03-30T13:07:08.576Z,100520.65
2023-03-30T13:09:59.388Z,100522.48
2023-03-30T13:12:27.828Z,100518.73
2023-03-30T13:15:06.203Z,100513.40
2023-03-30T13:17:51.254Z,100511.09
2023-03-30T13:20:29.938Z,100507.41
2023-03-30T13:23:01.346Z,100503.35
2023-03-30T13:25:37.677Z,100498.01
2023-03-30T13:28:29.003Z,100495.73
2023-03-30T13:30:59.887Z,100495.45
2023-03-30T13:33:30.293Z,100488.97
2023-03-30T13:36:04.855Z,100487.89
2023-03-30T13:38:48.042Z,100480.34
2023-03-30T13:41:40.947Z,100481.98
2023-03-30T13:44:18.400Z,100473.39
2023-03-30T13:47:08.041Z,100470.83
2023-03-30T13:49:48.974Z,100473.16
2023-03-30T13:52:19.565Z,100470.62
2023-03-30T13:54:48.015Z,100470.77
2023-03-30T13:57:24.878Z,100468.32
2023-03-30T13:59:58.232Z,100466.05
2023-03-30T14:02:26.459Z,100462.73
2023-03-30T14:05:22.226Z,100460.54
2023-03-30T14:07:55.307Z,100452.03
2023-03-30T14:10:23.697Z,100454.65
2023-03-30T14:12:56.987Z,100454.46
2023-03-30T14:15:34.071Z,100455.30
2023-03-30T14:18:06.852Z,100455.80
2023-03-30T14:20:50.127Z,100452.65
2023-03-30T14:23:20.985Z,100447.70
2023-03-30T14:25:52.957Z,100443.73
2023-03-30T14:28:21.684Z,100443.15
2023-03-30T14:30:53.073Z,100440.62
2023-03-30T14:33:23.188Z,100437.59
2023-03-30T14:35:59.122Z,100436.61
2023-03-30T14:38:37.916Z,100434.57
2023-03-30T14:41:13.743Z,100436.54
2023-03-30T14:43:42.309Z,100432.46
2023-03-30T14:46:11.903Z,100429.85
2023-03-30T14:48:42.072Z,100426.16
2023-03-30T14:51:43.665Z,100427.40
2023-03-30T14:54:21.748Z,100423.77
2023-03-30T14:57:01.789Z,100422.98
2023-03-30T14:59:32.574Z,100422.32
2023-03-30T15:02:00.924Z,100421.85
2023-03-30T15:04:33.934Z,100420.64
2023-03-30T15:07:02.148Z,100417.20
2023-03-30T15:09:37.622Z,100416.30
2023-03-30T15:12:06.151Z,100413.97
2023-03-30T15:14:38.492Z,100411.64
2023-03-30T15:17:11.428Z,100407.34
2023-03-30T15:19:40.254Z,100409.62
2023-03-30T15:22:23.716Z,100408.06
2023-03-30T15:24:52.169Z,100405.47
2023-03-30T15:27:21.160Z,100403.73
2023-03-30T15:29:49.451Z,100404.48
2023-03-30T15:32:21.350Z,100402.83
2023-03-30T15:35:11.588Z,100401.06
2023-03-30T15:37:39.865Z,100398.75
2023-03-30T15:40:26.370Z,100396.47
2023-03-30T15:43:27.253Z,100395.64
2023-03-30T15:46:04.955Z,100397.99
2023-03-30T15:48:43.333Z,100393.77
2023-03-30T15:51:34.229Z,100395.89
2023-03-30T15:54:03.908Z,100392.73
2023-03-30T15:56:35.086Z,100390.58
2023-03-30T15:59:04.077Z,100389.86
2023-03-30T16:01:51.995Z,100392.85
2023-03-30T16:04:22.522Z,100391.09
2023-03-30T16:06:50.829Z,100392.23
2023-03-30T16:09:19.211Z,100393.84
2023-03-30T16:11:48.210Z,100394.88
2023-03-30T16:14:23.009Z,100395.54
2023-03-30T16:16:51.927Z,100397.23
2023-03-30T16:19:20.345Z,100402.45
2023-03-30T16:21:49.140Z,100403.73
2023-03-30T16:24:19.139Z,100404.30
2023-03-30T16:26:47.608Z,100406.41
2023-03-30T16:29:21.666Z,100404.02
2023-03-30T16:31:51.207Z,100404.92
2023-03-30T16:34:19.498Z,100410.48
2023-03-30T16:36:48.765Z,100412.08
2023-03-30T16:39:24.813Z,100417.32
2023-03-30T16:41:56.957Z,100419.27
2023-03-30T16:44:25.534Z,100416.23
2023-03-30T16:46:53.622Z,100418.64
2023-03-30T16:49:24.614Z,100419.66
2023-03-30T16:51:55.234Z,100418.92
2023-03-30T16:54:32.523Z,100423.95
2023-03-30T16:57:01.879Z,100430.33
2023-03-30T16:59:34.391Z,100430.30
2023-03-30T17:02:03.611Z,100430.27
2023-03-30T17:04:31.760Z,100432.89
2023-03-30T17:07:01.878Z,100431.42
2023-03-30T17:09:30.380Z,100431.27
2023-03-30T17:11:58.511Z,100434.43
2023-03-30T17:14:27.789Z,100437.04
2023-03-30T17:16:56.085Z,100437.22
2023-03-30T17:19:25.636Z,100438.83
2023-03-30T17:21:53.917Z,100440.00
2023-03-30T17:24:21.918Z,100441.34
2023-03-30T17:26:51.052Z,100437.44
2023-03-30T17:29:19.870Z,100432.59
2023-03-30T17:31:52.423Z,100431.92
2023-03-30T17:34:22.426Z,100431.70
2023-03-30T17:36:50.548Z,100431.88
2023-03-30T17:39:19.940Z,100437.16
2023-03-30T17:41:48.079Z,100434.81
2023-03-30T17:44:18.015Z,100430.80
2023-03-30T17:46:46.406Z,100426.27
2023-03-30T17:49:16.531Z,100427.04
2023-03-30T17:51:45.689Z,100427.60
2023-03-30T17:54:14.936Z,100428.95
2023-03-30T17:56:43.494Z,100426.91
2023-03-30T17:59:12.352Z,100425.23
2023-03-30T18:01:40.900Z,100425.92
2023-03-30T18:04:09.567Z,100426.78
2023-03-30T18:06:37.897Z,100427.39
2023-03-30T18:09:12.534Z,100429.77
2023-03-30T18:11:41.313Z,100427.08
2023-03-30T18:14:09.541Z,100422.92
2023-03-30T18:16:42.704Z,100423.06
2023-03-30T18:19:12.472Z,100425.39
2023-03-30T18:21:41.949Z,100426.54
2023-03-30T18:24:13.499Z,100428.69
2023-03-30T18:26:43.837Z,100429.44
2023-03-30T18:29:22.373Z,100427.52
2023-03-30T18:31:51.063Z,100421.49
2023-03-30T18:34:19.811Z,100423.55
2023-03-30T18:36:48.090Z,100420.89
2023-03-30T18:39:22.512Z,100420.02
2023-03-30T18:41:54.019Z,100422.06
2023-03-30T18:44:23.466Z,100419.73
2023-03-30T18:46:52.310Z,100416.77
2023-03-30T18:49:24.019Z,100410.14
2023-03-30T18:51:52.624Z,100406.42
2023-03-30T18:54:20.670Z,100410.41
2023-03-30T18:56:50.066Z,100406.19
2023-03-30T18:59:26.242Z,100404.20
2023-03-30T19:01:54.300Z,100404.19
2023-03-30T19:04:22.698Z,100397.88
2023-03-30T19:06:53.166Z,100390.34
2023-03-30T19:09:29.837Z,100386.55
2023-03-30T19:12:05.056Z,100387.33
2023-03-30T19:14:33.518Z,100382.63
2023-03-30T19:17:01.838Z,100380.63
2023-03-30T19:19:30.239Z,100379.38
2023-03-30T19:21:59.672Z,100377.83
2023-03-30T19:24:28.051Z,100379.27
2023-03-30T19:26:56.656Z,100376.60
2023-03-30T19:29:27.246Z,100373.50
2023-03-30T19:31:58.748Z,100374.13
2023-03-30T19:34:27.038Z,100373.86
2023-03-30T19:36:55.321Z,100370.41
2023-03-30T19:39:23.551Z,100368.63
2023-03-30T19:41:52.238Z,100365.64
2023-03-30T19:44:21.179Z,100360.23
2023-03-30T19:46:49.882Z,100358.76
2023-03-30T19:49:17.986Z,100360.31
2023-03-30T19:51:46.266Z,100355.45
2023-03-30T19:54:16.284Z,100351.21
2023-03-30T19:56:44.549Z,100348.93
2023-03-30T19:59:15.510Z,100341.50
2023-03-30T20:01:44.133Z,100340.79
2023-03-30T20:04:12.563Z,100337.67
2023-03-30T20:06:40.953Z,100330.29
2023-03-30T20:09:12.193Z,100325.47
2023-03-30T20:11:40.365Z,100321.03
2023-03-30T20:14:08.995Z,100320.35
2023-03-30T20:16:38.808Z,100318.34
2023-03-30T20:19:13.134Z,100314.95
2023-03-30T20:21:49.349Z,100308.83
2023-03-30T20:24:17.624Z,100306.08
2023-03-30T20:26:45.798Z,100308.41
2023-03-30T20:29:14.994Z,100305.16
2023-03-30T20:31:43.218Z,100305.71
2023-03-30T20:37:23.578Z,100297.09
2023-03-30T20:39:51.879Z,100297.44
2023-03-30T20:42:30.288Z,100292.17
2023-03-30T20:44:59.675Z,100291.86
2023-03-30T20:47:30.872Z,100289.04
2023-03-30T20:49:59.682Z,100286.13
2023-03-30T20:52:27.773Z,100286.05
2023-03-30T20:54:56.539Z,100285.36
2023-03-30T20:57:24.837Z,100282.82
2023-03-30T20:59:54.274Z,100280.15
2023-03-30T21:02:23.220Z,100275.86
2023-03-30T21:04:53.440Z,100273.06
2023-03-30T21:07:25.712Z,100269.36
2023-03-30T21:09:54.202Z,100265.58
2023-03-30T21:12:22.579Z,100258.34
2023-03-30T21:14:54.639Z,100261.43
2023-03-30T21:17:23.133Z,100257.55
2023-03-30T21:19:51.453Z,100253.80
2023-03-30T21:22:19.774Z,100242.79
2023-03-30T21:24:48.275Z,100235.91
2023-03-30T21:27:16.634Z,100230.10
2023-03-30T21:29:46.445Z,100228.05
2023-03-30T21:32:14.934Z,100218.67
2023-03-30T21:34:43.430Z,100217.20
2023-03-30T21:37:11.721Z,100219.83
2023-03-30T21:39:40.527Z,100214.77
2023-03-30T21:42:08.856Z,100215.42
2023-03-30T21:44:38.472Z,100211.68
2023-03-30T21:47:07.043Z,100211.02
2023-03-30T21:49:37.298Z,100211.67
2023-03-30T21:52:05.547Z,100207.45
2023-03-30T21:54:34.439Z,100200.99
2023-03-30T21:57:02.660Z,100205.77
2023-03-30T21:59:31.078Z,100201.48
2023-03-30T22:01:59.903Z,100193.99
2023-03-30T22:04:28.154Z,100194.80
2023-03-30T22:06:56.629Z,100195.52
2023-03-30T22:09:24.929Z,100193.27
2023-03-30T22:11:55.651Z,100190.63
2023-03-30T22:14:24.320Z,100189.55
2023-03-30T22:16:52.508Z,100189.33
2023-03-30T22:19:24.688Z,100183.39
2023-03-30T22:21:53.067Z,100178.31
2023-03-30T22:24:21.233Z,100176.77
2023-03-30T22:26:49.817Z,100177.85
2023-03-30T22:29:20.968Z,100175.24
2023-03-30T22:31:51.652Z,100166.58
2023-03-30T22:34:21.109Z,100159.28
2023-03-30T22:36:49.294Z,100153.94
2023-03-30T22:39:17.650Z,100149.16
2023-03-30T22:41:46.364Z,100146.73
2023-03-30T22:44:15.028Z,100142.27
2023-03-30T22:46:43.610Z,100140.15
2023-03-30T22:49:12.298Z,100132.45
2023-03-30T22:51:52.772Z,100131.81
2023-03-30T22:54:21.826Z,100132.41
2023-03-30T22:56:51.264Z,100133.61
2023-03-30T22:59:19.635Z,100132.20
2023-03-30T23:01:47.917Z,100134.16
2023-03-30T23:04:17.216Z,100134.79
2023-03-30T23:06:46.104Z,100131.77
2023-03-30T23:09:14.805Z,100129.77
2023-03-30T23:11:46.151Z,100123.60
2023-03-30T23:14:14.547Z,100121.13
2023-03-30T23:16:42.803Z,100114.36
2023-03-30T23:19:13.527Z,100113.16
2023-03-30T23:21:44.888Z,100109.64
2023-03-30T23:24:16.222Z,100107.85
2023-03-30T23:26:45.116Z,100109.20
2023-03-30T23:29:13.596Z,100104.98
2023-03-30T23:31:43.100Z,100101.55
2023-03-30T23:34:12.630Z,100096.37
2023-03-30T23:36:43.412Z,100091.29
2023-03-30T23:39:12.031Z,100094.59
2023-03-30T23:41:40.714Z,100089.64
2023-03-30T23:44:11.041Z,100087.20
2023-03-30T23:46:40.108Z,100084.63
2023-03-30T23:49:08.420Z,100086.61
2023-03-30T23:51:37.715Z,100087.80
2023-03-30T23:54:07.174Z,100081.73
2023-03-30T23:56:37.152Z,100077.07
2023-03-30T23:59:05.516Z,100075.55
